Terminal Aerodrome Forecast
Issued by NWS

Home | Current Version | Previous Version | Text Only | Print | Product List | Glossary On
Versions: 1 2 3 4 5 6 7 8 9 10 11 12 13 14 15 16 17 18 19 20 21 22 23 24 25 26 27 28 29 30 31 32 33
000
FTUS43 KDLH 160537
TAFBRD
TAF
KBRD 160537Z 1606/1706 08004KT 4SM -SN BR SCT015 OVC026
      TEMPO 1606/1610 1 1/2SM -SN BR OVC015
     FM161000 11007KT 4SM -SN OVC010
     FM161700 11006KT 6SM -SN OVC010
     FM162300 13004KT P6SM OVC008=

USA.gov is the U.S. government's official web portal to all federal, state and local government web resources and services.